createdAt,value
2019-03-25T00:01:55.158Z,99.90
2019-03-25T00:04:26.057Z,99.90
2019-03-25T00:06:56.584Z,99.90
2019-03-25T00:09:27.122Z,99.90
2019-03-25T00:11:57.637Z,99.90
2019-03-25T00:14:27.993Z,99.90
2019-03-25T00:16:58.428Z,99.90
2019-03-25T00:19:29.210Z,99.90
2019-03-25T00:21:59.760Z,99.90
2019-03-25T00:24:38.656Z,99.90
2019-03-25T00:27:03.030Z,99.90
2019-03-25T00:29:33.493Z,99.90
2019-03-25T00:32:03.975Z,99.90
2019-03-25T00:34:34.753Z,99.90
2019-03-25T00:37:05.229Z,99.90
2019-03-25T00:39:35.665Z,99.90
2019-03-25T00:42:06.791Z,99.90
2019-03-25T00:44:38.275Z,99.90
2019-03-25T00:47:08.668Z,99.90
2019-03-25T00:49:40.331Z,99.90
2019-03-25T00:52:10.933Z,99.90
2019-03-25T00:54:50.015Z,99.90
2019-03-25T00:57:14.055Z,99.90
2019-03-25T00:59:44.522Z,99.90
2019-03-25T01:02:15.300Z,99.90
2019-03-25T01:04:45.670Z,99.90
2019-03-25T01:07:16.319Z,99.90
2019-03-25T01:09:46.862Z,99.90
2019-03-25T01:12:17.541Z,99.90
2019-03-25T01:14:48.204Z,99.90
2019-03-25T01:17:18.542Z,99.90
2019-03-25T01:19:48.903Z,99.90
2019-03-25T01:22:19.898Z,99.90
2019-03-25T01:25:00.950Z,99.90
2019-03-25T01:27:24.229Z,99.90
2019-03-25T01:29:54.720Z,99.90
2019-03-25T01:32:25.253Z,99.90
2019-03-25T01:34:55.633Z,99.90
2019-03-25T01:37:26.446Z,99.90
2019-03-25T01:39:57.188Z,99.90
2019-03-25T01:42:27.735Z,99.90
2019-03-25T01:44:58.196Z,99.90
2019-03-25T01:47:28.865Z,99.90
2019-03-25T01:49:59.236Z,99.90
2019-03-25T01:52:29.866Z,99.90
2019-03-25T01:55:12.706Z,99.90
2019-03-25T01:57:33.203Z,99.90
2019-03-25T02:00:03.979Z,99.90
2019-03-25T02:02:37.612Z,99.90
2019-03-25T02:05:09.526Z,99.90
2019-03-25T02:07:39.912Z,99.90
2019-03-25T02:10:13.828Z,99.90
2019-03-25T02:12:44.349Z,99.90
2019-03-25T02:15:14.859Z,99.90
2019-03-25T02:17:45.303Z,99.90
2019-03-25T02:20:25.910Z,99.90
2019-03-25T02:23:06.987Z,99.90
2019-03-25T02:25:38.004Z,99.90
2019-03-25T02:28:08.467Z,99.90
2019-03-25T02:30:39.058Z,99.90
2019-03-25T02:33:09.988Z,99.90
2019-03-25T02:35:40.923Z,99.90
2019-03-25T02:38:11.539Z,99.90
2019-03-25T02:40:41.993Z,99.90
2019-03-25T02:43:12.384Z,99.90
2019-03-25T02:45:42.867Z,99.90
2019-03-25T02:48:13.312Z,99.90
2019-03-25T02:50:44.067Z,99.90
2019-03-25T02:53:14.472Z,99.90
2019-03-25T02:55:44.862Z,99.90
2019-03-25T02:58:15.405Z,99.90
2019-03-25T03:00:46.084Z,99.90
2019-03-25T03:03:16.505Z,99.90
2019-03-25T03:05:47.015Z,99.90
2019-03-25T03:08:17.512Z,99.90
2019-03-25T03:10:48.182Z,99.90
2019-03-25T03:13:18.587Z,99.90
2019-03-25T03:15:49.029Z,99.90
2019-03-25T03:18:19.916Z,99.90
2019-03-25T03:20:50.291Z,99.90
2019-03-25T03:23:20.663Z,99.90
2019-03-25T03:25:57.659Z,99.90
2019-03-25T03:28:23.265Z,99.90
2019-03-25T03:30:53.937Z,99.90
2019-03-25T03:33:24.501Z,99.90
2019-03-25T03:35:54.893Z,99.90
2019-03-25T03:38:26.647Z,99.90
2019-03-25T03:40:57.335Z,99.90
2019-03-25T03:43:27.723Z,99.90
2019-03-25T03:45:58.064Z,99.90
2019-03-25T03:48:28.676Z,99.90
2019-03-25T03:50:59.606Z,99.90
2019-03-25T03:53:30.629Z,99.90
2019-03-25T03:56:12.693Z,99.90
2019-03-25T03:58:35.058Z,99.90
2019-03-25T04:01:05.646Z,99.90
2019-03-25T04:03:36.201Z,99.90
2019-03-25T04:06:06.724Z,99.90
2019-03-25T04:08:38.379Z,99.90
2019-03-25T04:11:09.530Z,99.90
2019-03-25T04:13:40.415Z,99.90
2019-03-25T04:16:10.904Z,99.90
2019-03-25T04:18:41.350Z,99.90
2019-03-25T04:21:11.767Z,99.90
2019-03-25T04:23:42.517Z,99.90
2019-03-25T04:26:27.558Z,99.90
2019-03-25T04:28:45.598Z,99.90
2019-03-25T04:31:16.088Z,99.90
2019-03-25T04:33:46.668Z,99.90
2019-03-25T04:36:17.091Z,99.90
2019-03-25T04:38:47.823Z,99.90
2019-03-25T04:41:18.260Z,99.90
2019-03-25T04:43:49.003Z,99.90
2019-03-25T04:46:19.461Z,99.90
2019-03-25T04:48:50.147Z,99.90
2019-03-25T04:51:20.560Z,99.90
2019-03-25T04:53:50.957Z,99.90
2019-03-25T04:56:21.364Z,99.90
2019-03-25T04:58:51.866Z,99.90
2019-03-25T05:01:22.255Z,99.90
2019-03-25T05:03:52.710Z,99.90
2019-03-25T05:06:23.463Z,99.90
2019-03-25T05:08:54.211Z,99.90
2019-03-25T05:11:30.502Z,99.90
2019-03-25T05:13:57.722Z,99.90
2019-03-25T05:16:28.240Z,99.90
2019-03-25T05:18:59.560Z,99.90
2019-03-25T05:21:30.517Z,99.90
2019-03-25T05:24:00.964Z,99.90
2019-03-25T05:26:31.476Z,99.90
2019-03-25T05:29:02.179Z,99.90
2019-03-25T05:31:32.728Z,99.90
2019-03-25T05:34:03.202Z,99.90
2019-03-25T05:36:34.099Z,99.90
2019-03-25T05:39:06.237Z,99.90
2019-03-25T05:41:36.788Z,99.90
2019-03-25T05:44:08.142Z,99.90
2019-03-25T05:46:38.576Z,99.90
2019-03-25T05:49:09.290Z,99.90
2019-03-25T05:51:40.096Z,99.90
2019-03-25T05:54:12.394Z,99.90
2019-03-25T05:56:43.059Z,99.90
2019-03-25T05:59:13.545Z,99.90
2019-03-25T06:01:44.414Z,99.90
2019-03-25T06:04:15.033Z,99.90
2019-03-25T06:06:46.632Z,99.90
2019-03-25T06:09:17.214Z,99.90
2019-03-25T06:11:47.766Z,99.90
2019-03-25T06:14:18.409Z,99.90
2019-03-25T06:16:49.159Z,99.90
2019-03-25T06:19:20.071Z,99.90
2019-03-25T06:21:51.694Z,99.90
2019-03-25T06:24:22.852Z,99.90
2019-03-25T06:26:53.486Z,99.90
2019-03-25T06:29:24.215Z,99.90
2019-03-25T06:31:55.336Z,99.90
2019-03-25T06:34:26.057Z,99.90
2019-03-25T06:36:56.646Z,99.90
2019-03-25T06:39:27.450Z,99.90
2019-03-25T06:41:58.442Z,99.90
2019-03-25T06:44:29.303Z,99.90
2019-03-25T06:47:00.187Z,99.90
2019-03-25T06:49:31.014Z,99.90
2019-03-25T06:52:01.558Z,99.90
2019-03-25T06:54:32.848Z,99.90
2019-03-25T06:57:03.520Z,99.90
2019-03-25T06:59:34.648Z,99.90
2019-03-25T07:02:05.476Z,99.90
2019-03-25T07:04:36.033Z,99.90
2019-03-25T07:07:06.605Z,99.90
2019-03-25T07:09:37.519Z,99.90
2019-03-25T07:12:08.104Z,99.90
2019-03-25T07:14:38.568Z,99.90
2019-03-25T07:17:09.800Z,99.90
2019-03-25T07:19:40.636Z,99.90
2019-03-25T07:22:11.484Z,99.90
2019-03-25T07:24:42.177Z,99.90
2019-03-25T07:27:12.754Z,99.90
2019-03-25T07:29:43.628Z,99.90
2019-03-25T07:32:14.448Z,99.90
2019-03-25T07:34:45.063Z,99.90
2019-03-25T07:37:16.062Z,99.90
2019-03-25T07:39:46.973Z,99.90
2019-03-25T07:42:17.505Z,99.90
2019-03-25T07:44:48.403Z,99.90
2019-03-25T07:47:18.986Z,99.90
2019-03-25T07:49:49.484Z,99.90
2019-03-25T07:52:20.097Z,99.90
2019-03-25T07:54:50.965Z,99.90
2019-03-25T07:57:22.091Z,99.90
2019-03-25T07:59:52.783Z,99.90
2019-03-25T08:02:23.383Z,99.90
2019-03-25T08:04:53.920Z,99.90
2019-03-25T08:07:24.603Z,99.90
2019-03-25T08:09:55.236Z,99.90
2019-03-25T08:12:25.752Z,99.90
2019-03-25T08:14:56.489Z,99.90
2019-03-25T08:17:27.357Z,99.90
2019-03-25T08:19:58.081Z,99.90
2019-03-25T08:22:28.536Z,99.90
2019-03-25T08:24:59.398Z,99.90
2019-03-25T08:27:30.353Z,99.90
2019-03-25T08:30:00.932Z,99.90
2019-03-25T08:32:31.550Z,99.90
2019-03-25T08:35:02.173Z,99.90
2019-03-25T08:37:32.716Z,99.90
2019-03-25T08:40:03.467Z,99.90
2019-03-25T08:42:34.248Z,99.90
2019-03-25T08:45:06.661Z,99.90
2019-03-25T08:47:37.284Z,99.90
2019-03-25T08:50:08.532Z,99.90
2019-03-25T08:52:39.227Z,99.90
2019-03-25T08:55:10.025Z,99.90
2019-03-25T08:57:40.631Z,99.90
2019-03-25T09:00:12.390Z,99.90
2019-03-25T09:02:43.258Z,99.90
2019-03-25T09:05:14.037Z,99.90
2019-03-25T09:07:45.022Z,99.90
2019-03-25T09:10:16.468Z,99.90
2019-03-25T09:12:47.040Z,99.90
2019-03-25T09:15:18.447Z,99.90
2019-03-25T09:17:49.305Z,99.90
2019-03-25T09:20:20.510Z,97.10
2019-03-25T09:22:51.320Z,84.00
2019-03-25T09:25:22.100Z,71.30
2019-03-25T09:27:52.935Z,63.80
2019-03-25T09:31:18.102Z,57.20
2019-03-25T09:33:49.456Z,55.00
2019-03-25T09:36:21.321Z,59.40
2019-03-25T09:39:04.059Z,77.40
2019-03-25T09:41:44.606Z,99.90
2019-03-25T09:44:18.101Z,99.90
2019-03-25T09:46:48.868Z,99.90
2019-03-25T09:49:19.860Z,99.90
2019-03-25T09:51:52.817Z,99.90
2019-03-25T09:54:22.556Z,99.90
2019-03-25T09:56:53.062Z,99.90
2019-03-25T09:59:27.787Z,99.90
2019-03-25T10:01:58.655Z,99.90
2019-03-25T10:04:29.237Z,84.70
2019-03-25T10:06:59.986Z,79.50
2019-03-25T10:09:30.807Z,67.80
2019-03-25T10:12:01.511Z,61.90
2019-03-25T10:14:31.973Z,59.30
2019-03-25T10:17:02.863Z,53.90
2019-03-25T10:19:33.981Z,55.00
2019-03-25T10:22:04.827Z,56.20
2019-03-25T10:24:36.159Z,65.70
2019-03-25T10:27:06.605Z,74.50
2019-03-25T10:29:37.449Z,90.30
2019-03-25T10:32:08.373Z,86.20
2019-03-25T10:34:39.008Z,84.40
2019-03-25T10:37:09.599Z,73.70
2019-03-25T10:39:40.184Z,67.80
2019-03-25T10:42:11.376Z,62.80
2019-03-25T10:44:46.409Z,72.70
2019-03-25T10:47:18.585Z,95.60
2019-03-25T10:49:49.093Z,99.90
2019-03-25T10:52:19.757Z,99.90
2019-03-25T10:54:50.383Z,99.90
2019-03-25T10:57:21.361Z,99.90
2019-03-25T10:59:52.144Z,99.90
2019-03-25T11:02:26.808Z,99.90
2019-03-25T11:04:57.231Z,99.90
2019-03-25T11:07:29.422Z,99.90
2019-03-25T11:10:01.485Z,99.90
2019-03-25T11:12:32.549Z,99.90
2019-03-25T11:15:03.075Z,99.90
2019-03-25T11:17:33.828Z,99.90
2019-03-25T11:20:06.244Z,99.20
2019-03-25T11:22:36.929Z,93.90
2019-03-25T11:25:08.284Z,81.40
2019-03-25T11:27:38.870Z,67.70
2019-03-25T11:30:11.552Z,71.10
2019-03-25T11:32:42.406Z,66.90
2019-03-25T11:35:13.359Z,65.60
2019-03-25T11:37:44.300Z,75.70
2019-03-25T11:40:15.798Z,75.70
2019-03-25T11:42:46.422Z,71.50
2019-03-25T11:45:17.121Z,76.50
2019-03-25T11:47:47.717Z,74.00
2019-03-25T11:50:18.513Z,68.20
2019-03-25T11:52:49.441Z,67.30
2019-03-25T11:55:19.930Z,70.00
2019-03-25T11:57:50.554Z,66.80
2019-03-25T12:00:23.320Z,71.50
2019-03-25T12:02:54.575Z,72.70
2019-03-25T12:05:25.240Z,76.00
2019-03-25T12:07:55.741Z,91.70
2019-03-25T12:10:26.562Z,98.00
2019-03-25T12:12:57.184Z,99.90
2019-03-25T12:15:28.323Z,99.90
2019-03-25T12:17:58.771Z,99.90
2019-03-25T12:20:29.388Z,99.90
2019-03-25T12:23:00.789Z,99.90
2019-03-25T12:25:31.411Z,99.90
2019-03-25T12:28:01.977Z,99.90
2019-03-25T12:30:32.861Z,99.90
2019-03-25T12:33:04.428Z,99.90
2019-03-25T12:35:35.226Z,99.90
2019-03-25T12:38:06.625Z,99.90
2019-03-25T12:40:37.619Z,99.90
2019-03-25T12:43:08.195Z,99.90
2019-03-25T12:45:38.762Z,99.90
2019-03-25T12:48:09.548Z,98.70
2019-03-25T12:50:40.094Z,93.20
2019-03-25T12:53:12.557Z,93.00
2019-03-25T12:55:43.329Z,91.10
2019-03-25T12:58:13.897Z,84.80
2019-03-25T13:00:45.147Z,80.50
2019-03-25T13:03:16.195Z,76.30
2019-03-25T13:05:48.370Z,78.50
2019-03-25T13:08:18.892Z,99.90
2019-03-25T13:10:50.124Z,99.90
2019-03-25T13:13:20.697Z,99.90
2019-03-25T13:15:51.291Z,99.90
2019-03-25T13:18:22.083Z,99.90
2019-03-25T13:20:52.576Z,99.90
2019-03-25T13:23:23.222Z,99.90
2019-03-25T13:25:54.342Z,99.90
2019-03-25T13:28:24.948Z,99.90
2019-03-25T13:30:55.523Z,99.90
2019-03-25T13:33:25.961Z,99.90
2019-03-25T13:35:56.612Z,99.90
2019-03-25T13:38:27.041Z,99.90
2019-03-25T13:40:57.693Z,99.90
2019-03-25T13:43:28.290Z,99.90
2019-03-25T13:46:05.438Z,99.90
2019-03-25T13:48:32.081Z,99.90
2019-03-25T13:51:02.621Z,99.90
2019-03-25T13:53:33.355Z,99.90
2019-03-25T13:56:04.528Z,99.90
2019-03-25T13:58:35.017Z,99.90
2019-03-25T14:01:06.072Z,99.90
2019-03-25T14:03:38.360Z,99.90
2019-03-25T14:06:08.870Z,99.90
2019-03-25T14:08:39.532Z,99.90
2019-03-25T14:11:12.849Z,99.90
2019-03-25T14:13:49.249Z,99.90
2019-03-25T14:16:16.986Z,99.90
2019-03-25T14:18:48.203Z,99.90
2019-03-25T14:21:18.701Z,99.90
2019-03-25T14:23:49.135Z,99.90
2019-03-25T14:26:19.612Z,99.90
2019-03-25T14:28:50.141Z,99.90
2019-03-25T14:31:21.093Z,99.90
2019-03-25T14:33:51.938Z,99.90
2019-03-25T14:36:22.401Z,99.90
2019-03-25T14:38:52.784Z,99.90
2019-03-25T14:41:24.147Z,99.90
2019-03-25T14:43:54.684Z,99.90
2019-03-25T14:46:25.779Z,99.90
2019-03-25T14:48:59.668Z,89.30
2019-03-25T14:51:30.386Z,96.10
2019-03-25T14:54:01.495Z,97.60
2019-03-25T14:56:31.999Z,99.30
2019-03-25T14:59:02.870Z,99.70
2019-03-25T15:01:34.931Z,99.90
2019-03-25T15:04:05.759Z,99.90
2019-03-25T15:06:36.704Z,99.90
2019-03-25T15:09:08.033Z,99.90
2019-03-25T15:11:39.005Z,97.00
2019-03-25T15:14:09.861Z,94.50
2019-03-25T15:16:41.256Z,95.70
2019-03-25T15:19:13.413Z,99.70
2019-03-25T15:21:43.840Z,99.90
2019-03-25T15:24:16.417Z,99.90
2019-03-25T15:26:47.064Z,99.90
2019-03-25T15:29:17.659Z,99.90
2019-03-25T15:31:48.571Z,99.90
2019-03-25T15:34:19.406Z,99.90
2019-03-25T15:36:50.592Z,99.90
2019-03-25T15:39:21.146Z,99.90
2019-03-25T15:41:52.428Z,99.90
2019-03-25T15:44:23.657Z,99.90
2019-03-25T15:46:55.980Z,99.90
2019-03-25T15:49:26.979Z,99.90
2019-03-25T15:51:58.471Z,99.90
2019-03-25T15:54:29.803Z,99.90
2019-03-25T15:57:00.350Z,99.90
2019-03-25T15:59:30.771Z,99.90
2019-03-25T16:02:01.252Z,99.90
2019-03-25T16:04:31.786Z,99.90
2019-03-25T16:07:02.406Z,99.90
2019-03-25T16:09:33.037Z,99.90
2019-03-25T16:12:05.015Z,99.90
2019-03-25T16:14:35.533Z,99.90
2019-03-25T16:17:06.334Z,99.90
2019-03-25T16:19:36.808Z,99.90
2019-03-25T16:22:08.519Z,99.90
2019-03-25T16:24:39.093Z,99.90
2019-03-25T16:27:09.859Z,99.90
2019-03-25T16:29:40.679Z,99.90
2019-03-25T16:32:11.444Z,99.90
2019-03-25T16:34:42.791Z,99.90
2019-03-25T16:37:13.293Z,99.90
2019-03-25T16:39:44.111Z,99.90
2019-03-25T16:42:14.763Z,99.90
2019-03-25T16:44:47.562Z,99.90
2019-03-25T16:47:18.130Z,99.90
2019-03-25T16:49:48.878Z,99.90
2019-03-25T16:52:19.573Z,99.90
2019-03-25T16:54:50.093Z,99.90
2019-03-25T16:57:20.720Z,99.90
2019-03-25T16:59:51.682Z,99.90
2019-03-25T17:02:22.209Z,99.90
2019-03-25T17:04:53.227Z,99.90
2019-03-25T17:07:24.163Z,99.90
2019-03-25T17:09:55.172Z,99.90
2019-03-25T17:12:26.107Z,99.90
2019-03-25T17:14:58.986Z,99.90
2019-03-25T17:17:29.671Z,99.90
2019-03-25T17:20:00.727Z,99.90
2019-03-25T17:22:31.231Z,99.90
2019-03-25T17:25:01.752Z,99.90
2019-03-25T17:27:32.434Z,99.90
2019-03-25T17:30:06.557Z,99.90
2019-03-25T17:32:37.239Z,99.90
2019-03-25T17:35:07.738Z,99.90
2019-03-25T17:37:38.159Z,99.90
2019-03-25T17:40:09.549Z,99.90
2019-03-25T17:42:40.278Z,99.90
2019-03-25T17:45:12.226Z,99.90
2019-03-25T17:47:43.167Z,99.90
2019-03-25T17:50:14.519Z,99.90
2019-03-25T17:52:45.118Z,99.90
2019-03-25T17:55:15.814Z,99.90
2019-03-25T17:57:46.604Z,99.90
2019-03-25T18:00:25.383Z,99.90
2019-03-25T18:02:56.437Z,99.90
2019-03-25T18:05:27.035Z,99.90
2019-03-25T18:07:57.894Z,99.90
2019-03-25T18:10:28.964Z,99.90
2019-03-25T18:12:59.502Z,99.90
2019-03-25T18:15:30.854Z,99.90
2019-03-25T18:18:01.356Z,99.90
2019-03-25T18:20:32.814Z,99.90
2019-03-25T18:23:03.237Z,99.90
2019-03-25T18:25:33.779Z,99.90
2019-03-25T18:28:04.409Z,99.90
2019-03-25T18:30:35.183Z,99.90
2019-03-25T18:33:06.223Z,99.90
2019-03-25T18:35:36.860Z,99.90
2019-03-25T18:38:08.071Z,99.90
2019-03-25T18:40:39.313Z,99.90
2019-03-25T18:43:09.833Z,99.90
2019-03-25T18:45:41.439Z,99.90
2019-03-25T18:48:12.129Z,99.90
2019-03-25T18:50:42.810Z,99.90
2019-03-25T18:53:13.586Z,99.90
2019-03-25T18:55:44.413Z,99.90
2019-03-25T18:58:15.081Z,99.90
2019-03-25T19:00:45.642Z,99.90
2019-03-25T19:03:18.328Z,99.90
2019-03-25T19:05:51.383Z,99.90
2019-03-25T19:08:22.040Z,99.90
2019-03-25T19:10:52.693Z,99.90
2019-03-25T19:13:23.349Z,99.90
2019-03-25T19:15:53.979Z,99.90
2019-03-25T19:18:24.671Z,99.90
2019-03-25T19:20:55.079Z,99.90
2019-03-25T19:23:25.563Z,99.90
2019-03-25T19:25:56.580Z,99.90
2019-03-25T19:28:27.941Z,99.90
2019-03-25T19:30:58.645Z,99.90
2019-03-25T19:33:29.344Z,99.90
2019-03-25T19:35:59.890Z,99.90
2019-03-25T19:38:30.499Z,99.90
2019-03-25T19:41:02.873Z,99.90
2019-03-25T19:43:33.691Z,99.90
2019-03-25T19:46:04.463Z,99.90
2019-03-25T19:48:35.004Z,99.90
2019-03-25T19:51:05.685Z,99.90
2019-03-25T19:53:36.248Z,99.90
2019-03-25T19:56:06.833Z,99.90
2019-03-25T19:58:37.444Z,99.90
2019-03-25T20:01:08.074Z,99.90
2019-03-25T20:03:38.546Z,99.90
2019-03-25T20:06:09.101Z,99.90
2019-03-25T20:08:39.888Z,99.90
2019-03-25T20:11:10.829Z,99.90
2019-03-25T20:13:43.547Z,99.90
2019-03-25T20:16:14.506Z,99.90
2019-03-25T20:18:45.172Z,99.90
2019-03-25T20:21:15.722Z,99.90
2019-03-25T20:23:46.388Z,99.90
2019-03-25T20:26:17.333Z,99.90
2019-03-25T20:28:47.890Z,99.90
2019-03-25T20:31:18.556Z,99.90
2019-03-25T20:33:49.285Z,99.90
2019-03-25T20:36:19.911Z,99.90
2019-03-25T20:38:51.107Z,99.90
2019-03-25T20:41:21.780Z,99.90
2019-03-25T20:43:52.415Z,99.90
2019-03-25T20:46:23.626Z,99.90
2019-03-25T20:48:54.132Z,99.90
2019-03-25T20:51:24.939Z,99.90
2019-03-25T20:53:55.519Z,99.90
2019-03-25T20:56:26.041Z,99.90
2019-03-25T20:58:56.890Z,99.90
2019-03-25T21:01:27.289Z,99.90
2019-03-25T21:03:57.809Z,99.90
2019-03-25T21:06:30.678Z,99.90
2019-03-25T21:09:01.778Z,99.90
2019-03-25T21:11:32.452Z,99.90
2019-03-25T21:14:02.960Z,99.90
2019-03-25T21:16:33.776Z,99.90
2019-03-25T21:19:04.885Z,99.90
2019-03-25T21:21:35.930Z,99.90
2019-03-25T21:24:07.868Z,99.90
2019-03-25T21:26:38.696Z,99.90
2019-03-25T21:29:09.962Z,99.90
2019-03-25T21:31:40.867Z,99.90
2019-03-25T21:34:11.893Z,99.90
2019-03-25T21:36:42.855Z,99.90
2019-03-25T21:39:13.723Z,99.90
2019-03-25T21:41:44.805Z,99.90
2019-03-25T21:44:16.425Z,99.90
2019-03-25T21:46:47.598Z,99.90
2019-03-25T21:49:18.547Z,99.90
2019-03-25T21:51:49.195Z,99.90
2019-03-25T21:54:19.964Z,99.90
2019-03-25T21:56:50.832Z,99.90
2019-03-25T21:59:21.254Z,99.90
2019-03-25T22:01:51.864Z,99.90
2019-03-25T22:04:23.197Z,99.90
2019-03-25T22:06:53.968Z,99.90
2019-03-25T22:09:24.632Z,99.90
2019-03-25T22:11:55.311Z,99.90
2019-03-25T22:14:26.021Z,99.90
2019-03-25T22:16:56.494Z,99.90
2019-03-25T22:19:26.948Z,99.90
2019-03-25T22:21:57.446Z,99.90
2019-03-25T22:24:28.350Z,99.90
2019-03-25T22:26:58.953Z,99.90
2019-03-25T22:29:29.538Z,99.90
2019-03-25T22:32:00.136Z,99.90
2019-03-25T22:34:30.657Z,99.90
2019-03-25T22:37:01.370Z,99.90
2019-03-25T22:39:31.887Z,99.90
2019-03-25T22:42:02.475Z,99.90
2019-03-25T22:44:33.277Z,99.90
2019-03-25T22:47:04.262Z,99.90
2019-03-25T22:49:34.839Z,99.90
2019-03-25T22:52:05.388Z,99.90
2019-03-25T22:54:36.226Z,99.90
2019-03-25T22:57:07.046Z,99.90
2019-03-25T22:59:37.446Z,99.90
2019-03-25T23:02:08.201Z,99.90
2019-03-25T23:04:38.857Z,99.90
2019-03-25T23:07:09.405Z,99.90
2019-03-25T23:09:39.895Z,99.90
2019-03-25T23:12:10.465Z,99.90
2019-03-25T23:14:41.046Z,99.90
2019-03-25T23:17:12.954Z,99.90
2019-03-25T23:19:43.397Z,99.90
2019-03-25T23:22:14.015Z,99.90
2019-03-25T23:24:44.433Z,99.90
2019-03-25T23:27:14.916Z,99.90
2019-03-25T23:29:45.367Z,99.90
2019-03-25T23:32:15.806Z,99.90
2019-03-25T23:34:46.314Z,99.90
2019-03-25T23:37:17.064Z,99.90
2019-03-25T23:39:47.616Z,99.90
2019-03-25T23:42:18.351Z,99.90
2019-03-25T23:44:48.942Z,99.90
2019-03-25T23:47:20.434Z,99.90
2019-03-25T23:49:50.819Z,99.90
2019-03-25T23:52:21.732Z,99.90
2019-03-25T23:54:52.422Z,99.90
2019-03-25T23:57:23.065Z,99.90
2019-03-25T23:59:53.445Z,99.90
